CA-0296 weather

CLOSED Kencor Airport
Priddis, Alberta, Canada

Public forecast

Using degrees Celsius for public forecast. Weather courtesy of forecast.io.

METAR (pilot weather report)

Closest report is Calgary / Springbank Airport, 11.9 nm (22.0 km) NNW. Retrieved 2019/06/20 14:39 UTC (0 seconds ago):

CYBW 201439Z AUTO 20005KT 9SM OVC046 06/05 A2971 RMK SLP081 DENSITY ALT 4000FT

TAF (pilot weather forecast)

Closest forecast is Calgary / Springbank Airport, 11.9 nm (22.0 km) NNW. Retrieved 2019/06/20 12:42 UTC (2 hours ago):

TAF CYBW 201138Z 2012/2024 26008KT P6SM OVC030 TEMPO 2012/2020 5SM -SHRA BR OVC020 FM202000 30010KT P6SM BKN040 TEMPO 2020/2024 P6SM -SHRA BKN020 RMK FCST BASED ON AUTO OBS. NXT FCST BY 201800Z